Time;durP1;ratioP1;P1;durP2;ratioP2;P2;SDS_P1;SDS_P2;PMS_P1;PMS_P2;Temp;Humidity;BMP_temperature;BMP_pressure;BME280_temperature;BME280_humidity;BME280_pressure;Samples;Min_cycle;Max_cycle;Signal;HPM_P1;HPM_P2
2022/10/08 00:01:12;;;;;;;34.95;33.65;;;9.50;78.50;;;;;;5028655;28;20045;-74
2022/10/08 00:03:50;;;;;;;35.25;33.95;;;9.40;78.50;;;;;;5029369;28;20029;-72
2022/10/08 00:06:18;;;;;;;34.35;33.05;;;9.40;78.50;;;;;;5011162;28;20120;-72
2022/10/08 00:08:49;;;;;;;34.10;32.80;;;9.40;78.60;;;;;;5028893;28;20097;-72
2022/10/08 00:11:19;;;;;;;34.65;33.35;;;9.40;78.60;;;;;;5029089;28;20097;-72
2022/10/08 00:13:46;;;;;;;35.40;34.10;;;9.40;78.60;;;;;;5010828;28;20017;-72
2022/10/08 00:16:24;;;;;;;35.90;34.55;;;9.40;78.60;;;;;;5028838;28;20029;-73
2022/10/08 00:18:52;;;;;;;37.80;36.40;;;9.40;78.60;;;;;;5011069;28;20560;-72
2022/10/08 00:21:28;;;;;;;35.70;34.40;;;9.40;78.60;;;;;;5028945;28;20726;-73
2022/10/08 00:23:54;;;;;;;35.80;34.50;;;9.40;78.60;;;;;;5010901;28;20061;-73
2022/10/08 00:26:24;;;;;;;36.55;35.15;;;9.40;78.70;;;;;;5010855;28;20033;-73
2022/10/08 00:28:52;;;;;;;36.70;35.30;;;9.40;78.70;;;;;;5028698;28;20104;-72
2022/10/08 00:31:28;;;;;;;37.60;36.20;;;9.50;78.70;;;;;;5028731;28;20034;-76
2022/10/08 00:33:55;;;;;;;36.85;35.45;;;9.40;78.60;;;;;;5028630;28;20110;-76
2022/10/08 00:36:24;;;;;;;35.08;33.78;;;9.40;78.60;;;;;;5009970;28;20034;-76
2022/10/08 00:39:01;;;;;;;37.35;35.95;;;9.50;78.70;;;;;;5010800;28;20061;-75
2022/10/08 00:41:29;;;;;;;36.30;34.92;;;9.50;78.70;;;;;;5028645;28;20041;-75
2022/10/08 00:43:58;;;;;;;36.72;35.33;;;9.50;79.10;;;;;;5028097;28;20025;-75
2022/10/08 00:46:35;;;;;;;35.97;34.67;;;9.50;78.70;;;;;;5027958;28;20372;-75
2022/10/08 00:49:04;;;;;;;38.83;37.42;;;9.40;78.60;;;;;;5028061;28;20021;-75
2022/10/08 00:51:31;;;;;;;38.47;37.08;;;9.50;78.70;;;;;;5027826;28;20087;-75
2022/10/08 00:53:57;;;;;;;36.13;34.80;;;9.50;78.70;;;;;;5028029;28;20359;-76
2022/10/08 00:56:23;;;;;;;;;;;9.40;78.60;;;;;;5028367;28;20049;-76
2022/10/08 00:58:50;;;;;;;34.13;32.83;;;9.40;78.70;;;;;;5027919;28;19909;-75
2022/10/08 01:01:16;;;;;;;37.88;36.47;;;9.40;78.60;;;;;;5027797;28;20395;-75
2022/10/08 01:03:42;;;;;;;38.22;36.83;;;9.40;78.70;;;;;;5027678;28;20030;-76
2022/10/08 01:06:23;;;;;;;38.13;36.72;;;9.40;78.70;;;;;;5027644;28;20038;-75
2022/10/08 01:09:06;;;;;;;39.22;37.75;;;9.40;78.70;;;;;;5027839;28;20031;-76
2022/10/08 01:11:49;;;;;;;38.97;37.58;;;9.40;78.70;;;;;;5027872;28;20094;-76
2022/10/08 01:14:38;;;;;;;40.17;38.67;;;9.40;78.70;;;;;;5027805;28;20025;-76
2022/10/08 01:17:18;;;;;;;39.90;38.40;;;9.40;78.80;;;;;;5027556;28;20030;-76
2022/10/08 01:20:18;;;;;;;39.20;37.75;;;9.40;78.70;;;;;;5027780;28;20025;-76
2022/10/08 01:23:20;;;;;;;40.28;38.78;;;9.40;78.70;;;;;;5027692;28;20399;-76
2022/10/08 01:26:02;;;;;;;40.28;38.78;;;9.40;78.70;;;;;;5027476;28;20025;-77
2022/10/08 01:28:33;;;;;;;41.63;40.13;;;9.40;78.70;;;;;;5009722;28;20018;-76
2022/10/08 01:31:23;;;;;;;44.22;42.63;;;9.30;78.70;;;;;;5009727;28;20021;-76
2022/10/08 01:33:58;;;;;;;42.53;40.92;;;9.30;78.70;;;;;;5027589;28;20052;-76
2022/10/08 01:36:26;;;;;;;41.03;39.53;;;9.30;78.70;;;;;;5027468;28;20022;-76
2022/10/08 01:39:00;;;;;;;43.63;42.03;;;9.30;79.20;;;;;;5027120;28;20190;-76
2022/10/08 01:41:30;;;;;;;42.40;40.80;;;9.30;78.70;;;;;;5027598;28;20021;-76
2022/10/08 01:44:06;;;;;;;44.53;42.92;;;9.30;78.70;;;;;;5027508;28;20049;-76
2022/10/08 01:46:36;;;;;;;44.35;42.75;;;9.30;78.70;;;;;;5027162;28;20029;-76
2022/10/08 01:49:09;;;;;;;44.10;42.50;;;9.20;78.60;;;;;;5009329;28;20036;-76
2022/10/08 01:51:51;;;;;;;42.53;40.92;;;9.20;78.60;;;;;;5026991;28;20079;-76
2022/10/08 01:54:18;;;;;;;43.78;42.17;;;9.20;78.70;;;;;;5027338;28;20071;-76
2022/10/08 01:56:46;;;;;;;43.70;42.10;;;9.20;78.70;;;;;;5009446;28;20026;-76
2022/10/08 01:59:18;;;;;;;42.72;41.13;;;9.20;78.70;;;;;;5026986;28;20036;-76
2022/10/08 02:02:11;;;;;;;45.53;43.83;;;9.20;78.70;;;;;;5027562;28;20021;-76
2022/10/08 02:04:37;;;;;;;47.05;45.35;;;9.10;78.70;;;;;;5027100;28;20113;-76
2022/10/08 02:07:18;;;;;;;46.17;44.47;;;9.10;78.60;;;;;;5027068;28;20125;-76
2022/10/08 02:09:53;;;;;;;45.88;44.17;;;9.10;78.70;;;;;;5027060;28;20067;-76
2022/10/08 02:12:21;;;;;;;44.65;43.05;;;9.10;78.70;;;;;;5027083;28;20381;-76
2022/10/08 02:14:50;;;;;;;48.40;46.60;;;9.10;78.70;;;;;;5027006;28;20495;-76
2022/10/08 02:17:25;;;;;;;47.90;46.17;;;9.00;78.70;;;;;;5027096;28;20044;-76
2022/10/08 02:20:01;;;;;;;47.80;46.10;;;9.00;78.70;;;;;;5027026;28;20029;-76
2022/10/08 02:22:39;;;;;;;48.33;46.53;;;9.00;78.70;;;;;;5027083;28;20028;-76
2022/10/08 02:25:20;;;;;;;48.30;46.50;;;9.00;78.70;;;;;;5027054;28;20037;-76
2022/10/08 02:27:52;;;;;;;47.65;45.95;;;8.90;78.60;;;;;;5027106;28;20025;-76
2022/10/08 02:30:19;;;;;;;49.65;47.85;;;8.90;78.70;;;;;;5026974;28;20125;-76
2022/10/08 02:33:01;;;;;;;49.40;47.60;;;8.90;78.70;;;;;;5009208;28;20395;-76
2022/10/08 02:35:36;;;;;;;49.80;48.00;;;8.90;78.80;;;;;;5026832;28;20479;-76
2022/10/08 02:38:10;;;;;;;51.25;49.35;;;8.90;78.70;;;;;;5009020;28;20664;-76
2022/10/08 02:40:38;;;;;;;51.78;49.88;;;8.80;78.70;;;;;;5026853;28;20029;-76
2022/10/08 02:43:12;;;;;;;51.17;49.28;;;8.80;78.70;;;;;;5009176;28;20384;-76
2022/10/08 02:45:49;;;;;;;52.78;50.88;;;8.80;78.70;;;;;;5026757;28;20367;-74
2022/10/08 02:48:25;;;;;;;51.97;50.08;;;8.80;78.70;;;;;;5026819;28;20498;-74
2022/10/08 02:50:54;;;;;;;52.03;50.13;;;8.80;78.70;;;;;;5026802;28;20111;-74
2022/10/08 02:53:22;;;;;;;53.88;51.88;;;8.80;78.70;;;;;;5026668;28;20112;-74
2022/10/08 02:56:12;;;;;;;54.28;52.28;;;8.80;78.70;;;;;;5026744;28;20135;-73
2022/10/08 02:58:38;;;;;;;54.88;52.88;;;8.80;78.70;;;;;;5026635;28;20070;-74
2022/10/08 03:01:16;;;;;;;54.38;52.38;;;8.70;78.70;;;;;;5029442;28;20021;-74
2022/10/08 03:03:46;;;;;;;54.13;52.13;;;8.70;78.70;;;;;;5030322;28;20432;-74
2022/10/08 03:06:14;;;;;;;57.92;55.83;;;8.70;78.70;;;;;;5030144;28;20039;-74
2022/10/08 03:08:45;;;;;;;58.33;56.22;;;8.70;78.70;;;;;;5030092;28;20037;-74
2022/10/08 03:11:12;;;;;;;56.15;54.13;;;8.60;78.60;;;;;;5030083;28;20404;-74
2022/10/08 03:13:42;;;;;;;59.30;57.15;;;8.60;78.70;;;;;;5012200;28;20041;-74
2022/10/08 03:16:12;;;;;;;60.75;58.55;;;8.60;78.70;;;;;;5030036;28;20025;-74
2022/10/08 03:18:38;;;;;;;60.47;58.28;;;8.60;78.70;;;;;;5030128;28;20388;-74
2022/10/08 03:21:07;;;;;;;62.22;59.95;;;8.60;78.70;;;;;;5029916;28;20028;-74
2022/10/08 03:23:33;;;;;;;62.67;60.38;;;8.60;78.70;;;;;;5012079;28;20033;-74
2022/10/08 03:25:59;;;;;;;65.68;63.28;;;8.60;78.70;;;;;;5029806;28;20392;-74
2022/10/08 03:28:24;;;;;;;67.07;64.68;;;8.50;78.70;;;;;;5012010;28;20033;-74
2022/10/08 03:30:50;;;;;;;62.65;60.35;;;8.50;78.70;;;;;;5029767;28;20034;-74
2022/10/08 03:33:16;;;;;;;66.15;63.75;;;8.50;78.70;;;;;;5029712;28;20108;-74
2022/10/08 03:35:45;;;;;;;66.47;64.07;;;8.50;78.70;;;;;;5011862;28;20034;-74
2022/10/08 03:38:14;;;;;;;64.90;62.55;;;8.50;78.70;;;;;;5011741;28;20047;-74
2022/10/08 03:40:41;;;;;;;68.05;65.57;;;8.50;78.70;;;;;;5029548;28;20046;-74
2022/10/08 03:43:07;;;;;;;70.72;68.22;;;8.40;78.70;;;;;;5029560;28;20117;-74
2022/10/08 03:45:33;;;;;;;72.00;69.40;;;8.50;78.80;;;;;;5029463;28;20589;-74
2022/10/08 03:47:58;;;;;;;66.93;64.53;;;8.50;78.80;;;;;;5029462;28;20026;-74
2022/10/08 03:50:24;;;;;;;69.60;67.10;;;8.50;78.70;;;;;;5029417;28;20430;-73
2022/10/08 03:52:50;;;;;;;71.45;68.85;;;8.40;78.70;;;;;;5029260;28;20026;-74
2022/10/08 03:55:16;;;;;;;68.07;65.57;;;8.50;78.70;;;;;;5029240;28;20061;-74
2022/10/08 03:57:42;;;;;;;71.82;69.22;;;8.50;78.70;;;;;;5011725;28;20052;-75
2022/10/08 04:00:08;;;;;;;70.35;67.85;;;8.40;78.70;;;;;;5029195;28;20320;-74
2022/10/08 04:02:34;;;;;;;;;;;8.40;78.70;;;;;;5029776;28;20064;-74
2022/10/08 04:04:59;;;;;;;69.00;66.50;;;8.40;78.70;;;;;;5029131;28;20375;-74
2022/10/08 04:07:26;;;;;;;68.15;65.65;;;8.40;78.70;;;;;;5029077;28;20037;-74
2022/10/08 04:09:52;;;;;;;70.47;67.93;;;8.40;78.70;;;;;;5010842;28;20495;-74
2022/10/08 04:12:17;;;;;;;72.05;69.45;;;8.40;78.70;;;;;;5027645;28;20087;-74
2022/10/08 04:14:43;;;;;;;70.70;68.13;;;8.40;78.70;;;;;;5028991;28;20399;-74
2022/10/08 04:17:09;;;;;;;70.13;67.63;;;8.40;78.70;;;;;;5011246;28;20176;-74
2022/10/08 04:19:34;;;;;;;70.57;68.00;;;8.40;78.70;;;;;;5029253;28;20491;-74
2022/10/08 04:22:00;;;;;;;70.85;68.25;;;8.40;78.70;;;;;;4994725;28;20029;-74
2022/10/08 04:24:26;;;;;;;72.95;70.35;;;8.40;78.70;;;;;;5028804;28;20409;-74
2022/10/08 04:26:51;;;;;;;75.90;73.20;;;8.40;78.70;;;;;;5028711;28;20472;-74
2022/10/08 04:29:17;;;;;;;68.20;65.70;;;8.40;78.70;;;;;;5028592;28;20061;-74
2022/10/08 04:31:43;;;;;;;71.43;68.82;;;8.40;78.70;;;;;;5028724;28;20033;-73
2022/10/08 04:34:10;;;;;;;71.50;68.90;;;8.40;78.70;;;;;;5010980;28;20040;-73
2022/10/08 04:36:36;;;;;;;68.82;66.32;;;8.40;78.70;;;;;;5028531;28;20058;-73
2022/10/08 04:39:02;;;;;;;73.47;70.78;;;8.40;78.70;;;;;;5010574;28;20097;-73
2022/10/08 04:41:28;;;;;;;71.70;69.10;;;8.40;78.70;;;;;;5028413;28;20091;-73
2022/10/08 04:43:58;;;;;;;68.90;66.40;;;8.30;78.70;;;;;;5028552;28;20029;-73
2022/10/08 04:46:24;;;;;;;70.13;67.53;;;8.30;78.70;;;;;;5028330;28;20083;-74
2022/10/08 04:48:52;;;;;;;74.68;71.97;;;8.30;78.70;;;;;;5028485;28;20026;-74
2022/10/08 04:51:20;;;;;;;72.95;70.32;;;8.30;78.70;;;;;;5028097;28;20029;-73
2022/10/08 04:53:46;;;;;;;74.47;71.78;;;8.30;78.70;;;;;;5027966;28;20057;-74
2022/10/08 04:56:18;;;;;;;73.40;70.70;;;8.30;78.80;;;;;;5028426;28;20651;-74
2022/10/08 04:58:45;;;;;;;71.80;69.20;;;8.20;78.70;;;;;;5028148;28;20503;-74
2022/10/08 05:01:13;;;;;;;76.07;73.28;;;8.20;78.80;;;;;;5027815;28;20083;-73
2022/10/08 05:03:42;;;;;;;74.47;71.78;;;8.20;78.80;;;;;;5028019;28;20025;-73
2022/10/08 05:06:09;;;;;;;72.82;70.13;;;8.20;78.80;;;;;;5010096;28;20144;-74
2022/10/08 05:08:35;;;;;;;72.25;69.57;;;8.20;78.80;;;;;;5027964;28;20047;-74
2022/10/08 05:11:01;;;;;;;71.38;68.78;;;8.20;78.80;;;;;;5027995;28;20025;-74
2022/10/08 05:13:27;;;;;;;72.38;69.68;;;8.20;78.80;;;;;;5027805;28;20040;-74
2022/10/08 05:15:53;;;;;;;72.90;70.20;;;8.20;78.80;;;;;;5027904;28;20120;-74
2022/10/08 05:18:18;;;;;;;71.55;68.93;;;8.20;78.90;;;;;;5010215;28;20041;-74
2022/10/08 05:20:44;;;;;;;71.03;68.43;;;8.20;78.90;;;;;;5027709;28;20034;-73
2022/10/08 05:23:10;;;;;;;70.18;67.57;;;8.10;78.80;;;;;;5027443;28;20029;-73
2022/10/08 05:25:36;;;;;;;72.95;70.25;;;8.20;78.90;;;;;;5027626;28;20429;-73
2022/10/08 05:28:03;;;;;;;73.50;70.80;;;8.20;78.90;;;;;;5027587;28;20033;-74
2022/10/08 05:30:29;;;;;;;72.85;70.15;;;8.20;78.90;;;;;;5027385;28;20112;-74
2022/10/08 05:32:55;;;;;;;72.43;69.72;;;8.20;78.90;;;;;;5009843;28;20102;-74
2022/10/08 05:35:20;;;;;;;70.70;68.10;;;8.20;78.90;;;;;;5009897;28;20057;-74
2022/10/08 05:37:46;;;;;;;74.20;71.47;;;8.20;78.90;;;;;;5027562;28;20021;-73
2022/10/08 05:40:12;;;;;;;73.60;70.90;;;8.20;78.90;;;;;;5009656;28;20041;-73
2022/10/08 05:42:37;;;;;;;72.90;70.20;;;8.20;78.90;;;;;;4993699;28;20040;-73
2022/10/08 05:45:04;;;;;;;75.95;73.15;;;8.20;78.90;;;;;;5027446;28;20492;-73
2022/10/08 05:47:30;;;;;;;75.63;72.82;;;8.20;78.90;;;;;;4993122;28;20280;-73
2022/10/08 05:49:55;;;;;;;73.40;70.70;;;8.20;78.90;;;;;;5009589;28;20479;-74
2022/10/08 05:52:21;;;;;;;73.72;71.03;;;8.30;78.90;;;;;;5009670;28;20104;-73
2022/10/08 05:54:47;;;;;;;74.05;71.30;;;8.30;78.90;;;;;;5027364;28;20558;-73
2022/10/08 05:57:12;;;;;;;72.88;70.18;;;8.30;78.90;;;;;;5026141;28;20051;-74
2022/10/08 05:59:38;;;;;;;73.72;71.03;;;8.30;78.90;;;;;;4993157;28;20040;-74
2022/10/08 06:02:04;;;;;;;77.32;74.43;;;8.30;78.90;;;;;;5027018;28;20056;-73
2022/10/08 06:04:29;;;;;;;72.15;69.45;;;8.40;79.00;;;;;;5009332;28;20029;-74
2022/10/08 06:06:55;;;;;;;77.25;74.40;;;8.40;78.90;;;;;;5027017;28;20037;-74
2022/10/08 06:09:21;;;;;;;74.07;71.30;;;8.40;78.90;;;;;;5027049;28;20480;-74
2022/10/08 06:11:47;;;;;;;77.30;74.43;;;8.50;79.00;;;;;;4993213;28;20391;-74
2022/10/08 06:14:23;;;;;;;73.75;71.05;;;8.50;79.40;;;;;;5027174;28;20029;-74
2022/10/08 06:16:48;;;;;;;73.78;71.07;;;8.60;79.00;;;;;;5027105;28;20126;-74
2022/10/08 06:19:15;;;;;;;71.95;69.25;;;8.60;79.00;;;;;;5027052;28;20232;-74
2022/10/08 06:21:41;;;;;;;72.55;69.85;;;8.70;79.00;;;;;;5026935;28;20033;-74
2022/10/08 06:24:10;;;;;;;72.93;70.22;;;8.70;79.00;;;;;;5009211;28;20506;-74
2022/10/08 06:26:38;;;;;;;71.65;68.95;;;8.70;79.00;;;;;;5026731;28;20116;-74
2022/10/08 06:29:11;;;;;;;75.82;73.00;;;8.70;78.90;;;;;;5026765;28;20375;-74
2022/10/08 06:31:37;;;;;;;74.03;71.25;;;8.70;78.90;;;;;;5026813;28;20029;-74
2022/10/08 06:34:03;;;;;;;76.50;73.70;;;8.80;79.00;;;;;;5009174;28;20030;-72
2022/10/08 06:36:30;;;;;;;73.68;70.90;;;8.70;78.90;;;;;;5030686;28;20041;-74
2022/10/08 06:38:57;;;;;;;73.00;70.30;;;8.80;79.00;;;;;;5012834;28;20209;-74
2022/10/08 06:41:24;;;;;;;72.25;69.55;;;8.80;79.00;;;;;;5030472;28;20033;-74
2022/10/08 06:43:50;;;;;;;71.93;69.22;;;8.80;79.10;;;;;;5012811;28;20104;-75
2022/10/08 06:46:17;;;;;;;71.88;69.18;;;8.80;79.10;;;;;;5030623;28;20100;-74
2022/10/08 06:48:42;;;;;;;72.10;69.40;;;8.80;79.10;;;;;;5030535;28;20036;-74
2022/10/08 06:51:14;;;;;;;72.47;69.78;;;8.80;79.10;;;;;;5030377;28;20025;-74
2022/10/08 06:53:41;;;;;;;71.90;69.20;;;8.80;79.10;;;;;;5030275;28;20022;-74
2022/10/08 06:56:17;;;;;;;71.38;68.68;;;8.80;79.10;;;;;;5030330;28;20029;-73
2022/10/08 06:58:43;;;;;;;70.88;68.18;;;8.80;79.10;;;;;;5030337;28;20256;-74
2022/10/08 07:01:15;;;;;;;69.57;66.97;;;8.80;79.10;;;;;;5012314;28;20053;-74
2022/10/08 07:03:41;;;;;;;72.50;69.80;;;8.80;79.10;;;;;;5030216;28;20029;-74
2022/10/08 07:06:09;;;;;;;71.95;69.25;;;8.80;79.10;;;;;;4995773;28;20033;-74
2022/10/08 07:08:35;;;;;;;69.00;66.40;;;8.90;79.20;;;;;;5012241;28;20486;-74
2022/10/08 07:11:13;;;;;;;69.78;67.18;;;8.90;79.20;;;;;;5029648;28;20061;-74
2022/10/08 07:13:39;;;;;;;69.35;66.75;;;8.90;79.20;;;;;;5029715;28;20527;-74
2022/10/08 07:16:08;;;;;;;67.75;65.25;;;8.90;79.20;;;;;;5029700;28;20034;-74
2022/10/08 07:18:35;;;;;;;66.20;63.72;;;9.00;79.30;;;;;;5011992;28;20614;-74
2022/10/08 07:21:01;;;;;;;65.05;62.65;;;9.00;79.30;;;;;;5029792;28;20031;-73
2022/10/08 07:23:27;;;;;;;62.55;60.22;;;9.10;79.30;;;;;;5012304;28;20033;-74
2022/10/08 07:25:58;;;;;;;63.05;60.65;;;9.10;79.30;;;;;;5029506;28;20041;-74
2022/10/08 07:28:26;;;;;;;61.13;58.83;;;9.10;79.30;;;;;;5029570;28;20029;-73
2022/10/08 07:30:51;;;;;;;57.13;55.03;;;9.20;79.30;;;;;;5029504;28;20069;-74
2022/10/08 07:33:17;;;;;;;58.13;55.92;;;9.20;79.30;;;;;;5011840;28;20036;-74
2022/10/08 07:35:43;;;;;;;57.63;55.53;;;9.30;79.30;;;;;;5029589;28;20061;-74
2022/10/08 07:38:09;;;;;;;56.25;54.15;;;9.40;79.30;;;;;;5029228;28;20056;-73
2022/10/08 07:40:35;;;;;;;58.42;56.22;;;9.40;79.20;;;;;;4995166;28;20033;-74
2022/10/08 07:43:01;;;;;;;55.40;53.33;;;9.50;79.30;;;;;;5011183;28;20026;-74
2022/10/08 07:45:27;;;;;;;53.10;51.10;;;9.50;79.30;;;;;;5029157;28;20116;-74
2022/10/08 07:47:53;;;;;;;52.00;50.10;;;9.60;79.40;;;;;;5029122;28;20416;-74
2022/10/08 07:50:18;;;;;;;51.75;49.85;;;9.70;79.50;;;;;;5028847;28;20079;-74
2022/10/08 07:52:44;;;;;;;51.33;49.42;;;9.70;79.40;;;;;;5011100;28;20036;-74
2022/10/08 07:55:10;;;;;;;48.53;46.72;;;9.90;79.50;;;;;;5028649;28;20045;-73
2022/10/08 07:57:36;;;;;;;52.08;50.17;;;10.00;79.50;;;;;;5010587;28;20187;-74
2022/10/08 08:00:03;;;;;;;51.05;49.15;;;10.10;79.50;;;;;;5028789;28;20224;-75
2022/10/08 08:02:29;;;;;;;48.90;47.10;;;10.20;79.50;;;;;;5028224;28;20112;-74
2022/10/08 08:04:54;;;;;;;46.45;44.75;;;10.30;79.60;;;;;;5010542;28;20499;-75
2022/10/08 08:07:20;;;;;;;36.55;35.15;;;10.50;79.70;;;;;;5028164;28;20517;-75
2022/10/08 08:09:46;;;;;;;30.75;29.45;;;10.70;80.00;;;;;;5010600;28;20127;-74
2022/10/08 08:12:12;;;;;;;27.92;26.83;;;11.10;80.90;;;;;;5028448;28;20369;-74
2022/10/08 08:14:38;;;;;;;16.48;15.77;;;11.80;81.90;;;;;;5028800;28;20513;-74
2022/10/08 08:17:03;;;;;;;19.67;18.88;;;12.60;81.90;;;;;;4994279;28;20033;-75
2022/10/08 08:19:29;;;;;;;20.35;19.55;;;13.50;81.90;;;;;;5010425;28;20029;-75
2022/10/08 08:21:55;;;;;;;20.40;19.60;;;14.30;81.40;;;;;;5029053;28;20144;-75
2022/10/08 08:24:21;;;;;;;16.50;15.80;;;15.00;81.00;;;;;;5028059;28;20033;-74
2022/10/08 08:26:46;;;;;;;14.98;14.35;;;15.80;80.60;;;;;;5027919;28;20522;-75
2022/10/08 08:29:17;;;;;;;11.57;11.07;;;16.50;80.40;;;;;;5010361;28;20060;-75
2022/10/08 08:31:47;;;;;;;8.00;7.60;;;17.20;80.30;;;;;;5028217;28;20487;-74
2022/10/08 08:34:16;;;;;;;7.13;6.72;;;17.90;79.90;;;;;;5028170;28;20497;-75
2022/10/08 08:36:44;;;;;;;4.57;4.28;;;18.40;79.50;;;;;;5027810;28;20026;-75
2022/10/08 08:39:16;;;;;;;3.83;3.53;;;18.90;79.50;;;;;;5027684;28;20155;-74
2022/10/08 08:42:01;;;;;;;2.55;2.35;;;19.30;79.40;;;;;;5027724;28;20040;-75
2022/10/08 08:44:37;;;;;;;2.47;2.28;;;19.70;79.10;;;;;;5027683;28;20053;-75
2022/10/08 08:47:30;;;;;;;1.88;1.77;;;20.10;79.10;;;;;;5030066;28;20109;-75
2022/10/08 08:50:01;;;;;;;1.00;1.00;;;20.40;79.10;;;;;;5018299;28;20030;-75
2022/10/08 08:52:32;;;;;;;0.80;0.80;;;20.80;79.40;;;;;;5024965;28;20024;-75
2022/10/08 08:54:59;;;;;;;0.70;0.70;;;21.10;79.40;;;;;;5048206;28;20043;-75
2022/10/08 08:57:35;;;;;;;0.50;0.50;;;21.50;79.50;;;;;;5047611;28;20070;-74
2022/10/08 09:00:11;;;;;;;0.20;0.20;;;21.90;79.40;;;;;;5048365;28;20020;-72
2022/10/08 09:02:43;;;;;;;;;;;22.20;79.10;;;;;;5048783;28;20482;-71
2022/10/08 09:05:13;;;;;;;0.20;0.20;;;22.40;78.80;;;;;;5042050;28;19970;-73
2022/10/08 09:07:53;;;;;;;0.20;0.20;;;22.50;78.80;;;;;;5038475;28;20060;-72
2022/10/08 09:10:31;;;;;;;0.60;0.50;;;22.70;79.10;;;;;;5034667;28;20485;-73
2022/10/08 09:12:58;;;;;;;0.10;0.10;;;22.90;79.60;;;;;;5039388;28;20032;-72
2022/10/08 09:15:36;;;;;;;0.00;0.00;;;23.00;79.10;;;;;;5036852;28;20041;-73
2022/10/08 09:18:03;;;;;;;0.00;0.00;;;23.20;79.30;;;;;;5036772;28;20025;-72
2022/10/08 09:20:30;;;;;;;0.00;0.00;;;23.30;79.30;;;;;;5020187;28;20036;-72
2022/10/08 09:22:56;;;;;;;0.00;0.00;;;23.50;79.20;;;;;;5018876;28;20037;-72
2022/10/08 09:25:24;;;;;;;0.00;0.00;;;23.70;79.20;;;;;;5020280;28;20108;-73
2022/10/08 09:27:58;;;;;;;0.00;0.00;;;23.70;78.90;;;;;;5014805;28;20502;-71
2022/10/08 09:30:32;;;;;;;0.08;0.08;;;23.70;79.10;;;;;;5015218;28;20532;-71
2022/10/08 09:33:17;;;;;;;0.00;0.00;;;23.90;79.30;;;;;;5040066;28;20025;-71
2022/10/08 09:35:48;;;;;;;0.00;0.00;;;24.10;79.40;;;;;;5038896;28;20049;-71
2022/10/08 09:38:23;;;;;;;0.00;0.00;;;24.40;79.30;;;;;;5034097;28;20037;-71
2022/10/08 09:41:17;;;;;;;0.00;0.00;;;24.50;79.20;;;;;;5036279;28;20029;-71
2022/10/08 09:43:44;;;;;;;0.00;0.00;;;24.60;79.50;;;;;;5036697;28;20312;-71
2022/10/08 09:46:31;;;;;;;0.00;0.00;;;25.00;79.90;;;;;;5018241;28;20444;-71
2022/10/08 09:49:24;;;;;;;0.00;0.00;;;25.10;79.80;;;;;;5034936;28;20036;-74
2022/10/08 09:51:50;;;;;;;0.00;0.00;;;25.30;79.60;;;;;;5019661;28;20096;-74
2022/10/08 09:54:24;;;;;;;0.00;0.00;;;25.40;79.60;;;;;;5030169;28;20105;-75
2022/10/08 09:56:57;;;;;;;0.00;0.00;;;25.50;79.60;;;;;;5027046;28;20379;-72
2022/10/08 09:59:26;;;;;;;0.00;0.00;;;25.60;79.60;;;;;;5028869;28;20045;-72
2022/10/08 10:01:54;;;;;;;0.00;0.00;;;25.70;79.30;;;;;;5035454;28;20541;-73
2022/10/08 10:04:40;;;;;;;0.00;0.00;;;25.70;79.40;;;;;;5020010;28;20032;-73
2022/10/08 10:07:06;;;;;;;0.00;0.00;;;25.90;79.80;;;;;;5019047;28;20044;-75
2022/10/08 10:09:44;;;;;;;0.00;0.00;;;26.00;79.80;;;;;;5021045;28;20036;-73
2022/10/08 10:12:35;;;;;;;0.00;0.00;;;26.20;80.10;;;;;;5041629;28;20022;-73
2022/10/08 10:15:04;;;;;;;0.00;0.00;;;26.50;80.50;;;;;;5041218;28;20021;-73
2022/10/08 10:17:52;;;;;;;0.00;0.00;;;26.80;80.30;;;;;;5042342;28;20025;-74
2022/10/08 10:20:38;;;;;;;0.08;0.05;;;26.80;79.80;;;;;;5037276;28;20029;-73
2022/10/08 10:23:12;;;;;;;0.00;0.00;;;26.70;79.80;;;;;;5040475;28;20206;-73
2022/10/08 10:25:50;;;;;;;0.00;0.00;;;26.90;80.40;;;;;;5037774;28;20028;-72
2022/10/08 10:28:20;;;;;;;0.00;0.00;;;26.90;79.60;;;;;;5018553;28;20187;-73
2022/10/08 10:30:57;;;;;;;0.00;0.00;;;26.70;79.50;;;;;;5039997;28;20028;-72
2022/10/08 10:33:35;;;;;;;0.00;0.00;;;26.60;79.60;;;;;;5038700;28;20056;-73
2022/10/08 10:36:06;;;;;;;0.00;0.00;;;26.40;79.70;;;;;;5038437;28;20029;-74
2022/10/08 10:38:36;;;;;;;0.00;0.00;;;26.60;80.30;;;;;;5039306;28;20124;-73
2022/10/08 10:41:33;;;;;;;0.00;0.00;;;26.80;80.10;;;;;;5040425;28;20547;-73
2022/10/08 10:44:10;;;;;;;0.00;0.00;;;26.80;80.00;;;;;;5037230;28;20096;-72
2022/10/08 10:46:41;;;;;;;0.00;0.00;;;26.80;80.30;;;;;;5039455;28;20019;-74
2022/10/08 10:49:23;;;;;;;0.00;0.00;;;27.00;80.50;;;;;;5042282;28;20066;-76
2022/10/08 10:51:58;;;;;;;0.00;0.00;;;26.90;80.20;;;;;;5039864;28;20017;-73
2022/10/08 10:54:23;;;;;;;0.00;0.00;;;26.80;80.00;;;;;;5038403;28;20024;-74
2022/10/08 10:57:08;;;;;;;0.00;0.00;;;26.80;80.30;;;;;;5039100;28;20110;-75
2022/10/08 10:59:43;;;;;;;0.45;0.10;;;27.00;80.80;;;;;;5038021;28;20069;-76
2022/10/08 11:02:25;;;;;;;0.00;0.00;;;27.20;80.90;;;;;;5039183;28;20049;-76
2022/10/08 11:05:12;;;;;;;0.00;0.00;;;27.50;80.90;;;;;;5050293;28;20459;-77
2022/10/08 11:07:53;;;;;;;0.00;0.00;;;27.60;80.40;;;;;;5032237;28;20027;-76
2022/10/08 11:10:42;;;;;;;0.00;0.00;;;27.20;79.80;;;;;;5049967;28;20032;-77
2022/10/08 11:13:35;;;;;;;0.00;0.00;;;27.10;80.20;;;;;;5030352;28;20383;-76
2022/10/08 11:16:27;;;;;;;0.00;0.00;;;26.70;79.40;;;;;;5030347;28;20104;-75
2022/10/08 11:18:58;;;;;;;0.00;0.00;;;26.20;79.80;;;;;;5030006;28;20025;-74
2022/10/08 11:22:02;;;;;;;0.00;0.00;;;25.60;79.10;;;;;;5027816;28;20041;-75
2022/10/08 11:24:55;;;;;;;0.05;0.05;;;25.00;79.80;;;;;;5030170;28;20026;-76
2022/10/08 11:27:29;;;;;;;0.00;0.00;;;24.70;81.20;;;;;;5028321;28;20033;-65
2022/10/08 11:30:12;;;;;;;0.00;0.00;;;25.00;81.40;;;;;;5030046;28;20025;-76
2022/10/08 11:32:42;;;;;;;0.03;0.03;;;25.30;81.20;;;;;;5030213;28;20072;-73
2022/10/08 11:35:10;;;;;;;0.10;0.10;;;25.00;80.20;;;;;;5030070;28;20486;-76
2022/10/08 11:38:00;;;;;;;0.00;0.00;;;24.90;79.90;;;;;;5030236;28;20120;-78
2022/10/08 11:40:53;;;;;;;0.00;0.00;;;24.50;79.80;;;;;;5030022;28;20491;-77
2022/10/08 11:43:42;;;;;;;0.00;0.00;;;24.50;80.90;;;;;;5029810;28;20028;-75
2022/10/08 11:46:21;;;;;;;0.00;0.00;;;24.90;80.80;;;;;;5027570;28;20036;-76
2022/10/08 11:48:48;;;;;;;0.00;0.00;;;25.10;80.50;;;;;;5028457;28;20348;-74
2022/10/08 11:51:20;;;;;;;0.20;0.10;;;25.20;80.00;;;;;;5027842;28;20387;-75
2022/10/08 11:54:30;;;;;;;0.00;0.00;;;25.10;79.90;;;;;;5027704;28;20026;-75
2022/10/08 11:57:17;;;;;;;0.00;0.00;;;25.10;80.40;;;;;;4967107;28;20130;-75
2022/10/08 11:59:56;;;;;;;0.13;0.10;;;25.30;79.60;;;;;;4967666;28;20035;-73
2022/10/08 12:02:29;;;;;;;0.00;0.00;;;25.10;78.80;;;;;;5012345;28;20074;-74
2022/10/08 12:04:57;;;;;;;0.00;0.00;;;24.60;78.20;;;;;;5028704;28;20026;-74
2022/10/08 12:07:34;;;;;;;0.00;0.00;;;24.00;78.00;;;;;;5029270;28;20018;-74
2022/10/08 12:10:24;;;;;;;0.00;0.00;;;23.60;78.90;;;;;;5028730;28;20486;-74
2022/10/08 12:12:50;;;;;;;0.00;0.00;;;23.50;79.90;;;;;;5028701;28;20077;-76
2022/10/08 12:15:22;;;;;;;0.00;0.00;;;23.70;80.50;;;;;;5026787;28;20026;-76
2022/10/08 12:17:55;;;;;;;0.00;0.00;;;24.00;80.70;;;;;;5028553;28;20365;-75
2022/10/08 12:20:32;;;;;;;0.00;0.00;;;24.20;80.40;;;;;;5028348;28;20029;-73
2022/10/08 12:23:03;;;;;;;0.00;0.00;;;24.30;80.30;;;;;;5028304;28;20034;-75
2022/10/08 12:25:31;;;;;;;0.00;0.00;;;24.30;80.00;;;;;;5028986;28;20132;-73
2022/10/08 12:28:18;;;;;;;0.00;0.00;;;24.00;79.20;;;;;;5029036;28;20105;-76
2022/10/08 12:30:48;;;;;;;0.00;0.00;;;23.70;80.10;;;;;;5034175;28;20018;-76
2022/10/08 12:33:15;;;;;;;0.00;0.00;;;23.80;80.70;;;;;;5038422;28;20030;-74
2022/10/08 12:35:59;;;;;;;0.00;0.00;;;24.00;80.70;;;;;;5036577;28;20084;-78
2022/10/08 12:38:52;;;;;;;0.00;0.00;;;24.10;81.00;;;;;;5019370;28;20066;-66
2022/10/08 12:41:27;;;;;;;0.00;0.00;;;24.50;81.30;;;;;;5028608;28;20033;-77
2022/10/08 12:44:16;;;;;;;0.00;0.00;;;24.90;80.90;;;;;;5021559;28;20027;-76
2022/10/08 12:46:59;;;;;;;0.00;0.00;;;25.10;80.40;;;;;;5031674;28;20088;-77
2022/10/08 12:49:34;;;;;;;0.00;0.00;;;24.90;79.40;;;;;;5027672;28;20420;-77
2022/10/08 12:52:11;;;;;;;0.00;0.00;;;24.60;79.30;;;;;;5015637;28;20068;-76
2022/10/08 12:54:56;;;;;;;0.00;0.00;;;24.50;79.40;;;;;;5029845;28;20021;-76
2022/10/08 12:57:37;;;;;;;0.00;0.00;;;24.30;79.40;;;;;;5025057;28;20070;-72
2022/10/08 13:00:09;;;;;;;0.00;0.00;;;23.80;78.40;;;;;;5035424;28;20035;-73
2022/10/08 13:02:38;;;;;;;0.00;0.00;;;23.10;77.90;;;;;;5039079;28;20025;-76
2022/10/08 13:05:31;;;;;;;0.00;0.00;;;22.50;78.20;;;;;;5040913;28;20103;-74